Time;durP1;ratioP1;P1;durP2;ratioP2;P2;SDS_P1;SDS_P2;PMS_P1;PMS_P2;Temp;Humidity;BMP_temperature;BMP_pressure;BME280_temperature;BME280_humidity;BME280_pressure;Samples;Min_cycle;Max_cycle;Signal;HPM_P1;HPM_P2
2021/11/13 00:02:04;;;;;;;36.00;17.70;;;;;;;5.39;79.84;100948.34;5090267;28;20062;-67
2021/11/13 00:04:31;;;;;;;35.50;18.52;;;;;;;5.44;80.15;100937.47;5090455;28;20040;-67
2021/11/13 00:06:57;;;;;;;36.13;17.25;;;;;;;5.44;79.24;100930.44;5090885;28;20044;-67
2021/11/13 00:09:24;;;;;;;34.42;17.80;;;;;;;5.45;79.45;100939.16;5092773;28;20527;-67
2021/11/13 00:11:51;;;;;;;35.00;17.20;;;;;;;5.43;79.62;100938.44;5093483;28;20067;-67
2021/11/13 00:14:19;;;;;;;37.08;17.95;;;;;;;5.55;79.18;100929.63;5088584;28;20036;-67
2021/11/13 00:16:46;;;;;;;32.33;17.42;;;;;;;5.54;79.14;100939.28;5082826;28;20048;-67
2021/11/13 00:19:13;;;;;;;35.92;17.48;;;;;;;5.57;78.58;100931.16;5090601;28;20054;-67
2021/11/13 00:21:40;;;;;;;34.25;17.52;;;;;;;5.52;78.50;100929.84;5091147;28;20518;-66
2021/11/13 00:24:08;;;;;;;32.45;16.73;;;;;;;5.49;78.93;100927.44;5093156;28;20036;-66
2021/11/13 00:26:34;;;;;;;32.33;17.08;;;;;;;5.57;79.01;100920.63;5089652;28;20045;-66
2021/11/13 00:29:02;;;;;;;33.40;17.80;;;;;;;5.71;78.16;100919.59;5093375;28;20168;-66
2021/11/13 00:31:29;;;;;;;34.78;17.23;;;;;;;5.72;77.30;100923.88;5090333;28;20044;-67
2021/11/13 00:33:56;;;;;;;34.03;17.17;;;;;;;5.61;78.63;100917.78;5092884;28;20048;-67
2021/11/13 00:36:23;;;;;;;34.88;17.30;;;;;;;5.61;78.33;100915.97;5091139;28;20500;-67
2021/11/13 00:38:50;;;;;;;35.25;17.20;;;;;;;5.70;78.62;100917.91;5093113;28;20040;-67
2021/11/13 00:41:18;;;;;;;33.35;16.98;;;;;;;5.83;78.31;100919.59;5090796;28;20044;-67
2021/11/13 00:43:45;;;;;;;36.15;17.92;;;;;;;5.69;78.19;100910.13;5092951;28;20040;-67
2021/11/13 00:46:12;;;;;;;33.08;16.02;;;;;;;5.74;78.16;100905.34;5091934;28;20044;-66
2021/11/13 00:48:38;;;;;;;33.05;16.98;;;;;;;5.80;77.39;100907.50;5093253;28;20047;-66
2021/11/13 00:51:05;;;;;;;33.00;16.60;;;;;;;5.84;77.01;100905.47;5089604;28;20135;-66
2021/11/13 00:53:33;;;;;;;33.45;16.52;;;;;;;5.83;78.09;100920.44;5092095;28;20048;-66
2021/11/13 00:56:01;;;;;;;33.55;16.85;;;;;;;5.91;78.58;100910.16;5057568;28;20055;-66
2021/11/13 00:58:27;;;;;;;36.03;17.40;;;;;;;5.90;77.38;100905.81;5092278;28;20044;-66
2021/11/13 01:00:54;;;;;;;29.42;14.82;;;;;;;5.92;76.76;100901.28;5092035;28;20044;-66
2021/11/13 01:03:21;;;;;;;30.05;16.17;;;;;;;6.03;76.51;100903.09;5073114;28;20073;-68
2021/11/13 01:05:48;;;;;;;32.50;16.20;;;;;;;6.03;76.41;100902.28;5073681;28;20052;-67
2021/11/13 01:08:16;;;;;;;31.27;15.07;;;;;;;6.00;77.70;100898.06;5091907;28;20046;-67
2021/11/13 01:10:43;;;;;;;28.85;15.52;;;;;;;6.11;76.76;100898.09;5092068;28;20051;-67
2021/11/13 01:13:10;;;;;;;31.85;16.20;;;;;;;6.08;77.43;100897.50;5092744;28;20044;-65
2021/11/13 01:15:37;;;;;;;30.63;15.45;;;;;;;6.12;75.98;100881.31;5089568;28;20044;-67
2021/11/13 01:18:04;;;;;;;29.90;15.68;;;;;;;6.10;77.26;100893.75;5109523;28;20044;-67
2021/11/13 01:20:30;;;;;;;31.67;15.57;;;;;;;6.08;77.07;100889.59;5091931;28;20050;-67
2021/11/13 01:22:58;;;;;;;27.48;15.18;;;;;;;6.06;77.65;100886.25;5094710;28;20040;-67
2021/11/13 01:25:26;;;;;;;30.75;15.82;;;;;;;6.15;76.49;100877.59;5112105;28;20500;-67
2021/11/13 01:27:53;;;;;;;27.67;14.43;;;;;;;6.08;76.99;100879.06;5094423;28;20450;-66
2021/11/13 01:30:22;;;;;;;28.08;15.13;;;;;;;6.19;76.49;100871.13;5112214;28;20126;-66
2021/11/13 01:32:50;;;;;;;32.25;15.63;;;;;;;6.11;76.36;100866.47;5111858;28;20089;-66
2021/11/13 01:35:18;;;;;;;27.80;15.60;;;;;;;6.08;76.64;100861.44;5110199;28;20496;-66
2021/11/13 01:37:45;;;;;;;29.10;14.73;;;;;;;6.11;76.48;100853.31;5090931;28;20043;-67
2021/11/13 01:40:16;;;;;;;32.80;15.98;;;;;;;6.12;76.26;100856.78;5078223;28;20407;-67
2021/11/13 01:42:45;;;;;;;29.25;15.32;;;;;;;6.13;76.70;100856.66;5071913;28;20135;-67
2021/11/13 01:45:12;;;;;;;27.77;15.32;;;;;;;6.21;76.39;100857.84;5092387;28;20035;-66
2021/11/13 01:47:40;;;;;;;27.48;14.70;;;;;;;6.19;75.75;100851.84;5082330;28;20035;-67
2021/11/13 01:50:12;;;;;;;29.15;14.85;;;;;;;6.08;76.10;100847.44;5112033;28;20450;-66
2021/11/13 01:52:39;;;;;;;28.10;14.63;;;;;;;6.19;75.83;100839.50;5100482;28;20050;-67
2021/11/13 01:55:07;;;;;;;27.55;14.90;;;;;;;6.21;75.74;100839.41;5093875;28;20077;-67
2021/11/13 01:57:45;;;;;;;31.02;15.05;;;;;;;6.15;77.08;100828.38;5104245;28;20041;-66
2021/11/13 02:00:17;;;;;;;34.00;15.80;;;;;;;6.10;77.96;100822.66;5090077;28;20418;-66
2021/11/13 02:02:55;;;;;;;33.97;15.68;;;;;;;6.09;77.69;100802.56;5118167;27;20407;-67
2021/11/13 02:05:23;;;;;;;32.05;15.75;;;;;;;6.06;78.31;100801.97;5125250;27;20115;-67
2021/11/13 02:07:49;;;;;;;31.27;16.10;;;;;;;6.02;78.91;100797.88;5129785;28;20167;-67
2021/11/13 02:10:20;;;;;;;37.95;16.08;;;;;;;6.09;79.23;100801.69;5115088;27;20048;-67
2021/11/13 02:12:47;;;;;;;31.17;16.33;;;;;;;6.13;78.79;100800.47;5109277;28;20089;-67
2021/11/13 02:15:15;;;;;;;29.92;15.80;;;;;;;6.09;77.82;100799.91;5139696;27;20042;-67
2021/11/13 02:17:42;;;;;;;32.58;16.50;;;;;;;6.32;77.34;100803.31;5146382;27;20050;-67
2021/11/13 02:20:32;;;;;;;31.88;15.82;;;;;;;6.19;78.31;100793.91;5114907;27;20044;-67
2021/11/13 02:23:03;;;;;;;29.05;15.93;;;;;;;6.24;78.09;100789.06;5129414;27;20035;-67
2021/11/13 02:25:32;;;;;;;36.60;16.20;;;;;;;6.12;77.37;100789.13;5129610;28;20055;-67
2021/11/13 02:27:59;;;;;;;29.95;15.40;;;;;;;6.20;77.73;100782.38;5122804;27;20548;-67
2021/11/13 02:30:27;;;;;;;31.73;16.15;;;;;;;6.22;77.56;100783.09;5130137;27;20126;-67
2021/11/13 02:32:55;;;;;;;32.58;16.23;;;;;;;6.33;78.54;100780.41;5130648;27;20035;-67
2021/11/13 02:35:26;;;;;;;31.42;15.75;;;;;;;6.13;78.82;100785.53;5130270;27;20040;-67
2021/11/13 02:37:53;;;;;;;36.22;16.77;;;;;;;6.27;78.53;100783.56;5107309;28;20143;-67
2021/11/13 02:40:21;;;;;;;33.58;17.25;;;;;;;6.20;79.22;100783.22;5109863;28;20117;-67
2021/11/13 02:42:50;;;;;;;33.83;16.50;;;;;;;6.29;80.38;100781.63;5129241;27;20059;-67
2021/11/13 02:45:18;;;;;;;32.58;17.00;;;;;;;6.06;80.72;100781.72;5112006;27;20438;-67
2021/11/13 02:47:48;;;;;;;33.63;16.88;;;;;;;6.07;81.18;100778.09;5114969;27;20088;-67
2021/11/13 02:50:16;;;;;;;33.75;17.58;;;;;;;6.01;82.22;100773.34;5130339;27;20419;-67
2021/11/13 02:52:53;;;;;;;34.20;17.48;;;;;;;5.92;82.56;100774.88;5099689;28;20097;-67
2021/11/13 02:55:21;;;;;;;31.25;17.15;;;;;;;5.95;83.35;100779.94;5115401;27;20402;-66
2021/11/13 02:57:49;;;;;;;33.92;18.15;;;;;;;5.99;83.31;100777.06;5129661;27;20048;-67
2021/11/13 03:00:19;;;;;;;32.88;17.55;;;;;;;5.89;83.63;100779.56;5129943;27;20039;-67
2021/11/13 03:02:50;;;;;;;32.75;17.92;;;;;;;5.96;83.35;100764.97;5128022;27;20105;-67
2021/11/13 03:05:23;;;;;;;35.08;18.63;;;;;;;5.91;84.02;100778.50;5126896;28;20045;-67
2021/11/13 03:07:52;;;;;;;36.30;18.50;;;;;;;5.95;84.08;100781.72;5126930;27;20050;-67
2021/11/13 03:10:19;;;;;;;35.55;18.10;;;;;;;5.74;84.38;100774.56;5112113;27;20041;-67
2021/11/13 03:12:46;;;;;;;34.22;18.15;;;;;;;5.77;85.00;100768.22;5115914;27;20036;-67
2021/11/13 03:15:16;;;;;;;40.08;18.30;;;;;;;5.85;84.79;100764.97;5096573;27;20105;-66
2021/11/13 03:17:44;;;;;;;37.97;18.35;;;;;;;5.87;85.54;100770.94;5101720;27;20055;-67
2021/11/13 03:20:14;;;;;;;37.22;19.15;;;;;;;5.86;85.97;100761.41;5115942;28;20039;-67
2021/11/13 03:22:41;;;;;;;34.05;17.85;;;;;;;5.84;85.53;100764.16;5104886;27;20047;-67
2021/11/13 03:25:11;;;;;;;36.28;18.80;;;;;;;5.82;86.99;100766.06;5102903;27;20097;-67
2021/11/13 03:27:43;;;;;;;36.13;18.63;;;;;;;5.77;86.40;100761.16;5104847;27;20392;-67
2021/11/13 03:30:10;;;;;;;39.67;19.37;;;;;;;5.89;86.54;100761.13;5095436;27;20484;-67
2021/11/13 03:32:37;;;;;;;40.80;19.23;;;;;;;5.85;87.17;100765.81;5095267;28;20185;-67
2021/11/13 03:35:06;;;;;;;41.63;19.17;;;;;;;5.90;86.84;100760.19;5093111;27;20044;-67
2021/11/13 03:37:33;;;;;;;38.83;19.15;;;;;;;5.99;87.00;100758.66;5094978;28;20040;-67
2021/11/13 03:40:01;;;;;;;43.72;19.45;;;;;;;5.87;87.24;100763.06;5123276;27;20035;-67
2021/11/13 03:42:31;;;;;;;40.13;19.80;;;;;;;5.95;88.01;100758.03;5114236;28;20066;-67
2021/11/13 03:44:59;;;;;;;46.50;21.20;;;;;;;5.90;88.07;100760.19;5112429;27;20048;-67
2021/11/13 03:47:26;;;;;;;39.25;20.27;;;;;;;5.84;88.03;100752.75;5099174;27;20127;-67
2021/11/13 03:49:54;;;;;;;42.70;20.23;;;;;;;5.90;88.89;100745.22;5131565;27;20051;-67
2021/11/13 03:52:21;;;;;;;37.83;19.60;;;;;;;6.03;88.68;100763.53;5093538;28;20059;-67
2021/11/13 03:54:48;;;;;;;44.15;20.95;;;;;;;5.89;88.49;100753.22;5109062;27;20057;-67
2021/11/13 03:57:16;;;;;;;42.63;20.60;;;;;;;5.98;88.73;100751.69;5101725;27;20036;-67
2021/11/13 03:59:43;;;;;;;40.53;20.70;;;;;;;6.15;88.20;100762.53;5095717;27;20044;-67
2021/11/13 04:02:10;;;;;;;43.13;20.90;;;;;;;6.00;88.42;100752.41;5094182;28;20447;-67
2021/11/13 04:04:39;;;;;;;45.40;20.25;;;;;;;6.14;87.89;100752.94;5094135;28;20497;-67
2021/11/13 04:07:07;;;;;;;42.33;19.90;;;;;;;6.11;87.87;100749.72;5094617;28;20040;-67
2021/11/13 04:09:35;;;;;;;38.30;20.13;;;;;;;6.05;88.60;100758.13;5100688;27;20047;-67
2021/11/13 04:12:05;;;;;;;41.42;20.58;;;;;;;6.12;88.02;100767.22;5115535;28;20061;-67
2021/11/13 04:14:34;;;;;;;41.58;19.73;;;;;;;6.10;88.34;100756.81;5110552;27;20044;-67
2021/11/13 04:17:04;;;;;;;43.05;21.20;;;;;;;6.07;88.58;100753.56;5077141;28;20492;-66
2021/11/13 04:19:31;;;;;;;39.42;20.42;;;;;;;6.23;88.42;100747.91;5115703;27;20036;-67
2021/11/13 04:21:57;;;;;;;42.45;20.02;;;;;;;6.16;88.56;100750.19;5114277;28;20061;-66
2021/11/13 04:24:24;;;;;;;39.45;20.50;;;;;;;6.16;88.83;100750.19;5095340;27;20070;-67
2021/11/13 04:26:51;;;;;;;38.55;20.88;;;;;;;6.29;87.88;100753.53;5094302;28;20492;-67
2021/11/13 04:29:19;;;;;;;39.80;20.45;;;;;;;6.02;88.61;100751.34;5112331;28;20507;-67
2021/11/13 04:31:45;;;;;;;41.45;20.45;;;;;;;6.14;89.66;100752.13;5111756;28;20031;-66
2021/11/13 04:34:18;;;;;;;40.28;20.60;;;;;;;6.19;89.20;100749.94;5094128;28;20048;-67
2021/11/13 04:36:47;;;;;;;43.60;22.15;;;;;;;6.22;88.89;100746.22;5094068;28;20055;-67
2021/11/13 04:39:14;;;;;;;42.17;21.77;;;;;;;6.15;88.93;100744.09;5089874;28;20047;-67
2021/11/13 04:41:41;;;;;;;42.55;20.77;;;;;;;6.27;88.95;100749.31;5104069;28;20050;-66
2021/11/13 04:44:08;;;;;;;43.72;20.77;;;;;;;6.35;89.47;100754.81;5091738;28;20055;-66
2021/11/13 04:46:35;;;;;;;47.10;21.05;;;;;;;6.37;88.97;100757.28;5092736;28;20474;-67
2021/11/13 04:49:02;;;;;;;45.72;21.73;;;;;;;6.33;88.71;100752.28;5094901;27;20058;-66
2021/11/13 04:51:29;;;;;;;45.03;22.00;;;;;;;6.49;88.49;100753.66;5093954;28;20044;-67
2021/11/13 04:53:56;;;;;;;48.78;22.50;;;;;;;6.32;88.65;100747.16;5112467;27;20039;-67
2021/11/13 04:56:23;;;;;;;51.10;21.95;;;;;;;6.34;88.79;100753.94;5113983;28;20043;-66
2021/11/13 04:58:51;;;;;;;46.15;22.35;;;;;;;6.41;89.00;100750.81;5112204;27;20059;-67
2021/11/13 05:01:17;;;;;;;46.30;22.27;;;;;;;6.40;88.52;100760.50;5107337;28;20043;-67
2021/11/13 05:03:44;;;;;;;45.75;21.60;;;;;;;6.37;88.90;100752.88;5110441;28;20048;-67
2021/11/13 05:06:11;;;;;;;49.85;23.55;;;;;;;6.21;89.03;100758.56;5115496;27;20081;-66
2021/11/13 05:08:38;;;;;;;49.75;23.05;;;;;;;6.32;89.97;100762.97;5097546;28;20044;-67
2021/11/13 05:11:05;;;;;;;43.75;21.02;;;;;;;6.47;88.64;100760.84;5094162;27;20067;-66
2021/11/13 05:13:31;;;;;;;48.63;21.92;;;;;;;6.39;88.85;100761.50;5093387;28;20044;-67
2021/11/13 05:15:58;;;;;;;43.35;22.23;;;;;;;6.27;89.51;100762.50;5094249;27;20044;-67
2021/11/13 05:18:25;;;;;;;49.45;22.25;;;;;;;6.25;89.77;100767.88;5103041;27;20537;-67
2021/11/13 05:20:51;;;;;;;43.70;22.08;;;;;;;6.46;88.99;100767.09;5112057;28;20040;-67
2021/11/13 05:23:18;;;;;;;44.78;21.70;;;;;;;6.46;88.79;100769.75;5112545;28;20495;-67
2021/11/13 05:25:45;;;;;;;48.20;23.50;;;;;;;6.48;89.24;100766.00;5113541;28;20239;-67
2021/11/13 05:28:12;;;;;;;50.38;22.60;;;;;;;6.43;89.37;100773.44;5095341;28;20058;-67
2021/11/13 05:30:39;;;;;;;46.40;21.85;;;;;;;6.45;89.50;100770.69;5090481;28;20389;-67
2021/11/13 05:33:05;;;;;;;52.90;23.17;;;;;;;6.47;89.38;100769.59;5092138;27;20481;-67
2021/11/13 05:35:32;;;;;;;49.80;22.25;;;;;;;6.49;90.02;100765.06;5108300;27;20043;-67
2021/11/13 05:37:59;;;;;;;52.65;24.08;;;;;;;6.49;89.73;100753.66;5092650;28;20052;-67
2021/11/13 05:40:26;;;;;;;45.22;22.42;;;;;;;6.53;89.42;100758.56;5090698;28;21591;-66
2021/11/13 05:42:54;;;;;;;45.72;22.05;;;;;;;6.48;89.79;100762.53;5091744;28;20036;-67
2021/11/13 05:45:21;;;;;;;44.60;22.75;;;;;;;6.54;88.85;100760.22;5093450;27;20048;-67
2021/11/13 05:47:48;;;;;;;45.70;23.40;;;;;;;6.43;90.45;100765.53;5098767;28;20100;-67
2021/11/13 05:50:16;;;;;;;45.58;23.33;;;;;;;6.50;89.91;100768.50;5113200;27;20100;-67
2021/11/13 05:52:47;;;;;;;44.30;21.15;;;;;;;6.56;89.58;100764.53;5111515;28;20123;-67
2021/11/13 05:55:15;;;;;;;50.40;22.45;;;;;;;6.52;89.08;100764.78;5096913;28;20048;-67
2021/11/13 05:57:42;;;;;;;47.42;22.23;;;;;;;6.43;90.02;100769.97;5092740;28;20044;-67
2021/11/13 06:00:13;;;;;;;43.65;21.38;;;;;;;6.36;90.38;100769.63;5111731;28;20069;-67
2021/11/13 06:02:41;;;;;;;50.00;21.48;;;;;;;6.35;90.29;100765.34;5095086;28;20105;-67
2021/11/13 06:05:09;;;;;;;45.67;22.48;;;;;;;6.38;90.33;100767.72;5098110;28;20043;-67
2021/11/13 06:07:37;;;;;;;46.63;21.83;;;;;;;6.44;90.27;100769.84;5091587;28;20135;-67
2021/11/13 06:10:04;;;;;;;46.35;22.40;;;;;;;6.46;89.70;100762.66;5092344;28;20101;-67
2021/11/13 06:12:31;;;;;;;46.17;21.02;;;;;;;6.56;89.62;100767.16;5092583;28;20127;-67
2021/11/13 06:14:59;;;;;;;49.58;22.85;;;;;;;6.53;89.33;100769.09;5115958;28;20441;-67
2021/11/13 06:17:27;;;;;;;45.35;22.67;;;;;;;6.57;89.49;100767.03;5130441;27;20035;-67
2021/11/13 06:19:55;;;;;;;45.55;21.13;;;;;;;6.51;89.51;100771.03;5091679;28;20500;-67
2021/11/13 06:22:22;;;;;;;45.20;22.90;;;;;;;6.58;89.90;100776.59;5093294;28;20068;-67
2021/11/13 06:24:48;;;;;;;47.05;22.38;;;;;;;6.62;89.44;100775.41;5112678;28;20049;-67
2021/11/13 06:27:16;;;;;;;45.33;22.58;;;;;;;6.66;89.48;100774.19;5111673;28;20403;-67
2021/11/13 06:29:43;;;;;;;48.90;21.80;;;;;;;6.54;89.83;100777.81;5104019;28;20048;-66
2021/11/13 06:32:11;;;;;;;47.47;21.30;;;;;;;6.60;89.99;100784.38;5092099;28;20036;-67
2021/11/13 06:34:39;;;;;;;51.30;22.38;;;;;;;6.63;90.00;100784.16;5091827;28;20514;-67
2021/11/13 06:37:08;;;;;;;44.83;22.10;;;;;;;6.71;89.99;100786.97;5092983;28;20036;-67
2021/11/13 06:39:35;;;;;;;43.33;21.27;;;;;;;6.47;90.49;100792.47;5111331;28;20047;-67
2021/11/13 06:42:04;;;;;;;47.42;23.45;;;;;;;6.60;90.23;100792.28;5094562;28;20043;-67
2021/11/13 06:44:31;;;;;;;44.28;21.35;;;;;;;6.55;90.32;100787.44;5093126;28;20040;-67
2021/11/13 06:46:58;;;;;;;46.47;22.02;;;;;;;6.68;90.22;100792.50;5122511;27;20035;-67
2021/11/13 06:49:25;;;;;;;48.15;20.55;;;;;;;6.76;89.43;100795.34;5110444;27;20036;-67
2021/11/13 06:51:52;;;;;;;44.78;21.13;;;;;;;6.53;89.91;100787.53;5114833;27;20395;-67
2021/11/13 06:54:19;;;;;;;41.92;21.00;;;;;;;6.64;90.02;100797.19;5115272;28;20094;-67
2021/11/13 06:56:46;;;;;;;44.65;21.25;;;;;;;6.66;90.67;100800.53;5116648;27;20040;-67
2021/11/13 06:59:13;;;;;;;42.85;20.92;;;;;;;6.71;90.44;100801.00;5098198;28;20039;-67
2021/11/13 07:01:41;;;;;;;50.10;21.10;;;;;;;6.72;91.14;100807.94;5112128;27;20043;-67
2021/11/13 07:04:07;;;;;;;45.90;21.52;;;;;;;6.65;90.12;100811.22;5100202;28;20048;-67
2021/11/13 07:06:34;;;;;;;46.90;21.73;;;;;;;6.70;90.56;100812.50;5110411;27;20114;-67
2021/11/13 07:09:02;;;;;;;46.00;21.33;;;;;;;6.76;90.73;100812.97;5099269;28;20131;-67
2021/11/13 07:11:29;;;;;;;47.33;22.33;;;;;;;6.75;90.77;100821.81;5106747;27;20051;-67
2021/11/13 07:13:56;;;;;;;44.40;20.27;;;;;;;6.79;90.88;100829.38;5094223;28;20042;-67
2021/11/13 07:16:23;;;;;;;50.63;23.05;;;;;;;6.81;90.13;100822.16;5095721;27;20046;-67
2021/11/13 07:18:49;;;;;;;42.78;20.75;;;;;;;6.77;90.19;100818.13;5110098;28;20504;-67
2021/11/13 07:21:16;;;;;;;45.13;21.25;;;;;;;6.88;90.23;100823.31;5114110;27;20035;-67
2021/11/13 07:23:43;;;;;;;44.22;21.23;;;;;;;7.00;90.18;100821.44;5111116;27;20040;-67
2021/11/13 07:26:12;;;;;;;46.65;20.23;;;;;;;6.88;90.32;100830.41;5094999;27;20048;-67
2021/11/13 07:28:41;;;;;;;37.30;19.55;;;;;;;6.94;90.88;100829.06;5095465;27;20082;-67
2021/11/13 07:31:11;;;;;;;46.70;21.23;;;;;;;6.94;90.73;100837.78;5094716;27;20058;-67
2021/11/13 07:33:38;;;;;;;41.00;20.48;;;;;;;6.95;90.64;100828.94;5095142;28;20039;-67
2021/11/13 07:36:06;;;;;;;39.95;19.45;;;;;;;6.90;90.91;100826.66;5097928;27;20560;-67
2021/11/13 07:38:34;;;;;;;45.83;20.10;;;;;;;6.92;90.97;100829.19;5094970;27;20051;-67
2021/11/13 07:41:02;;;;;;;37.85;20.08;;;;;;;7.03;90.94;100831.75;5115763;27;20407;-67
2021/11/13 07:43:29;;;;;;;43.17;19.98;;;;;;;7.04;90.76;100837.84;5129531;27;20437;-67
2021/11/13 07:45:55;;;;;;;39.88;18.45;;;;;;;7.12;90.19;100835.41;5094702;28;20050;-67
2021/11/13 07:48:22;;;;;;;39.35;19.70;;;;;;;7.09;90.36;100843.59;5104959;27;20043;-67
2021/11/13 07:50:49;;;;;;;41.10;19.20;;;;;;;6.99;90.57;100840.06;5115771;27;20531;-67
2021/11/13 07:53:16;;;;;;;40.58;19.70;;;;;;;7.13;90.21;100838.88;5113398;28;20381;-67
2021/11/13 07:55:43;;;;;;;36.80;19.25;;;;;;;7.17;90.71;100849.06;5095892;27;20059;-67
2021/11/13 07:58:15;;;;;;;37.78;18.38;;;;;;;7.18;90.16;100842.81;5093771;28;20479;-67
2021/11/13 08:00:47;;;;;;;43.58;19.40;;;;;;;7.17;90.16;100843.78;5111272;27;20051;-67
2021/11/13 08:03:17;;;;;;;37.47;18.30;;;;;;;7.17;90.09;100846.44;5113074;27;20038;-67
2021/11/13 08:05:44;;;;;;;39.05;18.15;;;;;;;7.29;90.48;100853.31;5113851;28;20035;-67
2021/11/13 08:08:10;;;;;;;41.00;18.60;;;;;;;7.26;90.56;100850.94;5114311;27;20050;-67
2021/11/13 08:10:41;;;;;;;36.63;17.73;;;;;;;7.23;90.70;100845.91;5111120;27;20504;-67
2021/11/13 08:13:10;;;;;;;40.05;18.90;;;;;;;7.31;90.66;100855.78;5093457;28;20044;-67
2021/11/13 08:15:37;;;;;;;38.25;17.95;;;;;;;7.52;89.50;100857.59;5095807;28;20144;-67
2021/11/13 08:18:06;;;;;;;37.25;16.95;;;;;;;7.44;89.52;100858.22;5104731;27;20043;-67
2021/11/13 08:20:34;;;;;;;37.58;17.58;;;;;;;7.44;90.34;100853.81;5113708;28;20557;-67
2021/11/13 08:23:04;;;;;;;37.92;17.75;;;;;;;7.48;90.58;100849.09;5104830;27;20040;-67
2021/11/13 08:25:32;;;;;;;37.05;17.63;;;;;;;7.44;89.97;100851.16;5093391;28;20052;-67
2021/11/13 08:27:58;;;;;;;36.92;16.80;;;;;;;7.40;90.26;100856.81;5100545;27;20067;-67
2021/11/13 08:30:29;;;;;;;35.95;17.35;;;;;;;7.50;90.24;100852.44;5113105;28;20048;-67
2021/11/13 08:32:57;;;;;;;33.40;16.38;;;;;;;7.43;89.98;100853.94;5115684;27;20118;-67
2021/11/13 08:35:24;;;;;;;35.33;16.80;;;;;;;7.46;90.28;100857.16;5114783;28;20092;-67
2021/11/13 08:37:51;;;;;;;30.33;16.17;;;;;;;7.46;90.47;100858.97;5084775;27;20051;-66
2021/11/13 08:40:18;;;;;;;36.03;16.38;;;;;;;7.55;90.21;100859.94;5094179;28;20051;-66
2021/11/13 08:42:45;;;;;;;36.72;16.80;;;;;;;7.59;90.48;100864.03;5093747;27;20101;-66
2021/11/13 08:45:13;;;;;;;33.60;16.25;;;;;;;7.63;90.53;100863.63;5077275;28;20048;-66
2021/11/13 08:47:41;;;;;;;35.90;16.50;;;;;;;7.67;90.34;100867.66;5107621;28;20400;-67
2021/11/13 08:50:12;;;;;;;36.40;16.00;;;;;;;7.64;90.20;100867.94;5113949;28;20043;-67
2021/11/13 08:52:38;;;;;;;33.08;16.30;;;;;;;7.73;89.96;100862.81;5110158;27;20047;-67
2021/11/13 08:55:06;;;;;;;33.35;16.58;;;;;;;7.71;89.91;100862.94;5112817;27;20048;-67
2021/11/13 08:57:33;;;;;;;30.05;15.15;;;;;;;7.68;90.14;100857.94;5114169;28;20121;-67
2021/11/13 09:00:00;;;;;;;31.95;15.95;;;;;;;7.78;89.79;100869.38;5113707;27;20044;-67
2021/11/13 09:02:28;;;;;;;26.33;14.63;;;;;;;7.85;89.40;100874.97;5086240;28;20059;-67
2021/11/13 09:04:56;;;;;;;28.38;14.35;;;;;;;7.85;89.53;100878.44;5103861;27;20130;-67
2021/11/13 09:07:23;;;;;;;31.33;15.80;;;;;;;7.76;90.59;100876.59;5113922;28;20049;-67
2021/11/13 09:09:50;;;;;;;30.67;15.75;;;;;;;7.68;90.60;100877.25;5103038;27;20481;-67
2021/11/13 09:12:22;;;;;;;32.47;15.57;;;;;;;7.67;91.16;100878.22;5093767;28;20126;-67
2021/11/13 09:14:50;;;;;;;28.65;14.05;;;;;;;7.74;90.99;100881.19;5093172;28;20659;-67
2021/11/13 09:17:19;;;;;;;31.92;15.65;;;;;;;7.81;90.74;100881.50;5095795;27;20040;-67
2021/11/13 09:19:47;;;;;;;26.83;13.80;;;;;;;7.84;90.57;100876.78;5095447;28;20408;-67
2021/11/13 09:22:15;;;;;;;26.98;14.35;;;;;;;7.92;90.47;100875.28;5109392;27;20051;-67
2021/11/13 09:24:42;;;;;;;29.92;14.48;;;;;;;7.98;90.27;100882.66;5095170;28;20047;-67
2021/11/13 09:27:09;;;;;;;27.13;13.15;;;;;;;7.96;90.25;100874.88;5097390;28;20101;-67
2021/11/13 09:29:35;;;;;;;25.75;14.00;;;;;;;8.01;90.32;100880.59;5093285;28;20124;-67
2021/11/13 09:32:03;;;;;;;30.02;14.55;;;;;;;8.06;90.39;100869.63;5103569;27;20112;-67
2021/11/13 09:34:29;;;;;;;27.95;14.68;;;;;;;8.10;90.14;100881.59;5105672;27;20035;-67
2021/11/13 09:36:56;;;;;;;26.88;13.50;;;;;;;8.11;90.22;100885.91;5110738;28;20035;-67
2021/11/13 09:39:23;;;;;;;26.90;13.95;;;;;;;8.05;90.15;100886.44;5097015;27;20081;-67
2021/11/13 09:41:51;;;;;;;29.40;14.43;;;;;;;8.15;89.94;100882.03;5117447;27;20053;-67
2021/11/13 09:44:21;;;;;;;30.40;14.57;;;;;;;8.19;89.57;100880.78;5107711;28;20052;-67
2021/11/13 09:46:51;;;;;;;25.40;14.10;;;;;;;8.15;90.24;100883.81;5107987;28;20092;-67
2021/11/13 09:49:18;;;;;;;28.05;13.15;;;;;;;8.25;90.28;100885.53;5110763;27;20036;-67
2021/11/13 09:51:47;;;;;;;28.58;14.18;;;;;;;8.30;90.64;100889.59;5110858;27;20089;-67
2021/11/13 09:54:15;;;;;;;27.83;13.85;;;;;;;8.33;90.41;100884.00;5131949;27;20118;-67
2021/11/13 09:56:41;;;;;;;27.50;12.68;;;;;;;8.45;89.73;100886.44;5133746;27;20043;-67
2021/11/13 09:59:08;;;;;;;32.40;14.88;;;;;;;8.49;90.16;100880.88;5127875;27;20051;-66
2021/11/13 10:01:35;;;;;;;27.58;13.43;;;;;;;8.54;89.67;100884.78;5111066;28;20047;-66
2021/11/13 10:04:02;;;;;;;29.60;13.10;;;;;;;8.76;88.88;100894.25;5099524;28;20036;-66
2021/11/13 10:06:30;;;;;;;26.20;13.55;;;;;;;8.63;89.20;100883.13;5112814;28;20539;-66
2021/11/13 10:08:57;;;;;;;25.80;14.50;;;;;;;8.62;89.39;100884.94;5112466;28;20036;-66
2021/11/13 10:11:27;;;;;;;26.92;13.88;;;;;;;8.71;89.47;100879.78;5109641;28;20046;-67
2021/11/13 10:13:57;;;;;;;26.75;13.50;;;;;;;8.84;88.74;100883.84;5106047;28;20036;-66
2021/11/13 10:16:35;;;;;;;30.73;14.32;;;;;;;8.87;88.82;100876.59;5107901;28;20053;-66
2021/11/13 10:19:08;;;;;;;23.88;12.52;;;;;;;8.76;89.46;100872.28;5115295;28;20384;-66
2021/11/13 10:21:39;;;;;;;25.10;13.15;;;;;;;8.79;89.86;100874.66;5099471;28;20036;-66
2021/11/13 10:24:25;;;;;;;24.75;12.35;;;;;;;8.65;90.21;100873.25;5107999;27;20032;-66
2021/11/13 10:26:55;;;;;;;23.00;11.65;;;;;;;8.80;89.96;100865.72;5136285;27;20435;-66
2021/11/13 10:29:29;;;;;;;22.52;11.68;;;;;;;8.82;89.93;100863.75;5089794;28;20127;-66
2021/11/13 10:31:59;;;;;;;23.17;11.50;;;;;;;8.85;90.29;100860.84;5134395;27;20043;-66
2021/11/13 10:34:32;;;;;;;26.35;12.90;;;;;;;8.96;90.28;100865.16;5132943;27;20781;-66
2021/11/13 10:37:03;;;;;;;23.67;11.23;;;;;;;8.94;90.15;100870.59;5116172;28;20043;-66
2021/11/13 10:39:33;;;;;;;18.88;10.77;;;;;;;8.97;90.02;100870.31;5098236;28;20067;-66
2021/11/13 10:42:07;;;;;;;30.35;12.15;;;;;;;8.92;89.88;100872.53;5098629;28;20421;-66
2021/11/13 10:44:39;;;;;;;22.35;10.70;;;;;;;8.98;89.87;100874.63;5114727;28;20036;-66
2021/11/13 10:47:15;;;;;;;;;;;;;;;8.84;90.50;100877.69;5117043;28;20044;-66
2021/11/13 10:49:42;;;;;;;23.25;10.27;;;;;;;8.96;90.10;100870.47;5115136;28;20016;-66
2021/11/13 10:52:10;;;;;;;20.83;9.52;;;;;;;9.01;90.13;100874.34;5115351;28;20039;-66
2021/11/13 10:54:40;;;;;;;20.70;10.52;;;;;;;9.07;90.30;100874.75;5117958;27;20066;-66
2021/11/13 10:57:08;;;;;;;18.42;10.05;;;;;;;9.12;90.20;100878.66;5118085;27;20043;-66
2021/11/13 10:59:38;;;;;;;21.25;9.68;;;;;;;9.11;90.11;100874.31;5084295;28;20070;-66
2021/11/13 11:02:09;;;;;;;22.60;9.70;;;;;;;9.23;89.87;100869.72;5094696;27;20054;-66
2021/11/13 11:04:40;;;;;;;19.00;9.23;;;;;;;9.19;89.66;100878.94;5123437;27;20059;-66
2021/11/13 11:07:12;;;;;;;18.10;9.18;;;;;;;9.30;89.75;100870.84;5111754;28;20504;-66
2021/11/13 11:09:43;;;;;;;18.17;9.07;;;;;;;9.41;89.62;100875.13;5115406;28;20040;-66
2021/11/13 11:12:21;;;;;;;18.27;9.57;;;;;;;9.47;89.74;100877.19;5121842;27;20122;-66
2021/11/13 11:14:52;;;;;;;18.55;8.65;;;;;;;9.51;89.45;100875.09;5112464;27;20479;-65
2021/11/13 11:17:22;;;;;;;19.17;9.30;;;;;;;9.49;89.78;100879.69;5100934;28;20043;-67
2021/11/13 11:19:51;;;;;;;20.25;9.48;;;;;;;9.55;89.78;100884.41;5094197;28;20044;-67
2021/11/13 11:22:23;;;;;;;20.00;10.23;;;;;;;9.61;89.32;100878.56;5094457;28;20040;-67